Andrews, Texas
Current Conditions -  °F | °C
As of 1:55 PM on Thursday 30 Oct 2014 (Local Time) from KE11 Reporting Station
Clear Clear  
Wind Chill: 77°   Ceiling: Unl
Heat Index: 77°   Visibility: 10mi
Dew Point: 34°   Wind: 7mph
Humidity: 21%   Direction: 340°NNW
Pressure: 30.15"   Gusts: 17mph
Location:  32.32°N, 102.54°W
Report Text: KE11 301855Z AUTO 34006G15KT 10SM CLR 25/01 A3015 RMK AO2 T02490012
Loading
Personal Weather Stations






























Interactive Weather Map New forecast layout! Learn more

10-Day Weather Forecast

Advertisements
Track Severe Weather on mobile